Saratoga, Wyoming
Current Conditions -  °F | °C
As of 3:35 PM on Wednesday 22 Oct 2014 (Local Time) from KSAA Reporting Station
Clear Clear  
Wind Chill: 54°   Ceiling: Unl
Heat Index: 54°   Visibility: 10mi
Dew Point: 23°   Wind: 18mph
Humidity: 30%   Direction: 260°W
Pressure: 30.2"   Gusts: 22mph
Location:  41.45°N, 106.81°W
Report Text: KSAA 222135Z AUTO 26016G19KT 10SM CLR 12/M05 A3020 RMK AO2
Loading
Personal Weather Stations






























Interactive Weather Map
Tropical Storm Tracking
New forecast layout! Learn more

10-Day Weather Forecast

Advertisements
Track Severe Weather on mobile